Snow/Ice From: 16-12-2017 16:00 Until: 17-12-2017 16:00 warning for: Snow/Ice Level: Yellow info button

Although rather usual in this region, locally or potentially dangerous phenomena are expected. (such as local winds, summer thunderstorms, rising streams or high waves) Be aware and pay attention to the latest weather updates, especially if you carry out activities exposed to weather or close to a stream or shoreline. 


Meteo18 Weather Cam more information Meteo18 Weather Cam


Thunder radar more information blitzortung!


warning for Snow/Ice more information rain snow radar


Visit our other weather sites:

Template documentation
and downloads

And another site



Weather Underground History page Text

Daily Summary for January 1, 2017 Units:  Both    English   Metric
« Previous Day
Next Day »
Daily Weekly Monthly Yearly Custom
  High: Low: Average:
Temperature: 32.4 °F /  0.2 °C 25.5 °F /  -3.6 °C 29.3 °F /  -1.5 °C
Dew Point: 31.8 °F /  -0.1 °C 24.6 °F /  -4.1 °C 28.6 °F /  -1.9 °C
Humidity: 98 % 96 % 97 %
Wind Speed: 4 mph /  6.4 km/h - 0.8 mph /  1.3 km/h
Wind Gust: 7 mph /  11.3 km/h - -
Wind:- - SW
Pressure: 30.4 in /  1030.0 hPa 30.2 in /  1022.2 hPa -
Precipitation: 0 in /  0.0 mm    
Historical Graphs
 
 
Tabular Data for January 1, 2017
Time Temperature Dew Point Pressure Wind Wind Speed Wind Gust Humidity Rainfall Rate (Hourly)
00:02 26.8 °F /  -2.9 °C 26.1 °F /  -3.3 °C 30.4 in /  1030.0 hPa Calm   3 mph /  4.8 km/h 97 % 0 in /  0.0 mm
00:12 26.8 °F /  -2.9 °C 26.1 °F /  -3.3 °C 30.4 in /  1029.7 hPa Calm   2 mph /  3.2 km/h 97 % 0 in /  0.0 mm
00:17 26.8 °F /  -2.9 °C 26.1 °F /  -3.3 °C 30.4 in /  1029.7 hPa SSE 1 mph /  1.6 km/h 2 mph /  3.2 km/h 97 % 0 in /  0.0 mm
00:22 27 °F /  -2.8 °C 26.2 °F /  -3.2 °C 30.4 in /  1029.3 hPa Calm   2 mph /  3.2 km/h 97 % 0 in /  0.0 mm
00:27 26.8 °F /  -2.9 °C 26.1 °F /  -3.3 °C 30.4 in /  1029.3 hPa SSW 1 mph /  1.6 km/h 3 mph /  4.8 km/h 97 % 0 in /  0.0 mm
00:37 26.8 °F /  -2.9 °C 26.1 °F /  -3.3 °C 30.4 in /  1029.3 hPa Calm   3 mph /  4.8 km/h 97 % 0 in /  0.0 mm
00:42 26.8 °F /  -2.9 °C 26.1 °F /  -3.3 °C 30.4 in /  1029.3 hPa South 1 mph /  1.6 km/h 3 mph /  4.8 km/h 97 % 0 in /  0.0 mm
00:47 26.8 °F /  -2.9 °C 26.1 °F /  -3.3 °C 30.4 in /  1029.3 hPa SW 1 mph /  1.6 km/h 2 mph /  3.2 km/h 97 % 0 in /  0.0 mm
00:52 27 °F /  -2.8 °C 26.2 °F /  -3.2 °C 30.4 in /  1029.3 hPa Calm   2 mph /  3.2 km/h 97 % 0 in /  0.0 mm
00:57 27 °F /  -2.8 °C 26.2 °F /  -3.2 °C 30.4 in /  1029.0 hPa Calm   3 mph /  4.8 km/h 97 % 0 in /  0.0 mm
01:02 27 °F /  -2.8 °C 26.2 °F /  -3.2 °C 30.4 in /  1029.0 hPa SW 1 mph /  1.6 km/h 3 mph /  4.8 km/h 97 % 0 in /  0.0 mm
01:12 26.4 °F /  -3.1 °C 25.5 °F /  -3.6 °C 30.4 in /  1029.0 hPa Calm   2 mph /  3.2 km/h 96 % 0 in /  0.0 mm
01:17 26.4 °F /  -3.1 °C 25.5 °F /  -3.6 °C 30.4 in /  1029.0 hPa Calm   2 mph /  3.2 km/h 96 % 0 in /  0.0 mm
01:22 26.4 °F /  -3.1 °C 25.5 °F /  -3.6 °C 30.4 in /  1029.0 hPa SW 2 mph /  3.2 km/h 2 mph /  3.2 km/h 96 % 0 in /  0.0 mm
01:32 26.2 °F /  -3.2 °C 25.3 °F /  -3.7 °C 30.4 in /  1029.0 hPa Calm   3 mph /  4.8 km/h 96 % 0 in /  0.0 mm
01:37 26.2 °F /  -3.2 °C 25.3 °F /  -3.7 °C 30.4 in /  1028.7 hPa Calm   3 mph /  4.8 km/h 96 % 0 in /  0.0 mm
01:42 26.4 °F /  -3.1 °C 25.7 °F /  -3.5 °C 30.4 in /  1028.7 hPa Calm   3 mph /  4.8 km/h 97 % 0 in /  0.0 mm
01:47 26.2 °F /  -3.2 °C 25.3 °F /  -3.7 °C 30.4 in /  1028.7 hPa Calm   3 mph /  4.8 km/h 96 % 0 in /  0.0 mm
01:52 26.2 °F /  -3.2 °C 25.3 °F /  -3.7 °C 30.4 in /  1028.3 hPa SSW 1 mph /  1.6 km/h 3 mph /  4.8 km/h 96 % 0 in /  0.0 mm
01:57 26.1 °F /  -3.3 °C 25.2 °F /  -3.8 °C 30.4 in /  1028.3 hPa Calm   3 mph /  4.8 km/h 96 % 0 in /  0.0 mm
02:02 25.9 °F /  -3.4 °C 25 °F /  -3.9 °C 30.4 in /  1028.3 hPa Calm   2 mph /  3.2 km/h 96 % 0 in /  0.0 mm
02:07 25.9 °F /  -3.4 °C 25 °F /  -3.9 °C 30.4 in /  1028.3 hPa Calm   2 mph /  3.2 km/h 96 % 0 in /  0.0 mm
02:12 25.7 °F /  -3.5 °C 24.8 °F /  -4.0 °C 30.4 in /  1028.3 hPa Calm   1 mph /  1.6 km/h 96 % 0 in /  0.0 mm
02:17 25.7 °F /  -3.5 °C 24.8 °F /  -4.0 °C 30.4 in /  1028.3 hPa South 1 mph /  1.6 km/h 2 mph /  3.2 km/h 96 % 0 in /  0.0 mm
02:22 25.5 °F /  -3.6 °C 24.6 °F /  -4.1 °C 30.4 in /  1028.3 hPa Calm   2 mph /  3.2 km/h 96 % 0 in /  0.0 mm
02:27 25.5 °F /  -3.6 °C 24.6 °F /  -4.1 °C 30.4 in /  1028.0 hPa SE 1 mph /  1.6 km/h 3 mph /  4.8 km/h 96 % 0 in /  0.0 mm
02:32 25.5 °F /  -3.6 °C 24.6 °F /  -4.1 °C 30.4 in /  1028.0 hPa Calm   3 mph /  4.8 km/h 96 % 0 in /  0.0 mm
02:42 25.5 °F /  -3.6 °C 24.6 °F /  -4.1 °C 30.4 in /  1028.0 hPa SE 1 mph /  1.6 km/h 2 mph /  3.2 km/h 96 % 0 in /  0.0 mm
02:47 25.5 °F /  -3.6 °C 24.6 °F /  -4.1 °C 30.4 in /  1028.0 hPa WSW 1 mph /  1.6 km/h 2 mph /  3.2 km/h 96 % 0 in /  0.0 mm
02:52 25.5 °F /  -3.6 °C 24.6 °F /  -4.1 °C 30.4 in /  1028.0 hPa Calm   2 mph /  3.2 km/h 96 % 0 in /  0.0 mm
02:57 25.5 °F /  -3.6 °C 24.6 °F /  -4.1 °C 30.4 in /  1028.0 hPa Calm   2 mph /  3.2 km/h 96 % 0 in /  0.0 mm
03:02 25.5 °F /  -3.6 °C 24.6 °F /  -4.1 °C 30.4 in /  1028.0 hPa Calm   1 mph /  1.6 km/h 96 % 0 in /  0.0 mm
03:07 25.5 °F /  -3.6 °C 24.6 °F /  -4.1 °C 30.4 in /  1027.7 hPa Calm   1 mph /  1.6 km/h 96 % 0 in /  0.0 mm
03:12 25.7 °F /  -3.5 °C 24.8 °F /  -4.0 °C 30.4 in /  1027.7 hPa SSW 1 mph /  1.6 km/h 1 mph /  1.6 km/h 96 % 0 in /  0.0 mm
03:17 25.9 °F /  -3.4 °C 25 °F /  -3.9 °C 30.4 in /  1027.7 hPa Calm   1 mph /  1.6 km/h 96 % 0 in /  0.0 mm
03:22 25.9 °F /  -3.4 °C 25 °F /  -3.9 °C 30.4 in /  1027.7 hPa Calm   1 mph /  1.6 km/h 96 % 0 in /  0.0 mm
03:27 26.1 °F /  -3.3 °C 25.3 °F /  -3.7 °C 30.4 in /  1027.7 hPa SW 1 mph /  1.6 km/h 1 mph /  1.6 km/h 97 % 0 in /  0.0 mm
03:32 26.1 °F /  -3.3 °C 25.3 °F /  -3.7 °C 30.3 in /  1027.3 hPa Calm   1 mph /  1.6 km/h 97 % 0 in /  0.0 mm
03:37 26.2 °F /  -3.2 °C 25.5 °F /  -3.6 °C 30.3 in /  1027.3 hPa SW 1 mph /  1.6 km/h 1 mph /  1.6 km/h 97 % 0 in /  0.0 mm
03:42 26.2 °F /  -3.2 °C 25.5 °F /  -3.6 °C 30.3 in /  1027.3 hPa Calm   1 mph /  1.6 km/h 97 % 0 in /  0.0 mm
03:47 26.4 °F /  -3.1 °C 25.7 °F /  -3.5 °C 30.3 in /  1027.3 hPa Calm   1 mph /  1.6 km/h 97 % 0 in /  0.0 mm
03:52 26.4 °F /  -3.1 °C 25.7 °F /  -3.5 °C 30.3 in /  1027.3 hPa Calm   1 mph /  1.6 km/h 97 % 0 in /  0.0 mm
03:57 26.8 °F /  -2.9 °C 26.1 °F /  -3.3 °C 30.3 in /  1027.0 hPa Calm   1 mph /  1.6 km/h 97 % 0 in /  0.0 mm
04:02 26.8 °F /  -2.9 °C 26.1 °F /  -3.3 °C 30.3 in /  1027.0 hPa SW 1 mph /  1.6 km/h 1 mph /  1.6 km/h 97 % 0 in /  0.0 mm
04:07 27 °F /  -2.8 °C 26.2 °F /  -3.2 °C 30.3 in /  1027.0 hPa Calm   1 mph /  1.6 km/h 97 % 0 in /  0.0 mm
04:12 27 °F /  -2.8 °C 26.2 °F /  -3.2 °C 30.3 in /  1027.0 hPa Calm   1 mph /  1.6 km/h 97 % 0 in /  0.0 mm
04:17 27 °F /  -2.8 °C 26.2 °F /  -3.2 °C 30.3 in /  1027.0 hPa SW 1 mph /  1.6 km/h 1 mph /  1.6 km/h 97 % 0 in /  0.0 mm
04:22 27.1 °F /  -2.7 °C 26.4 °F /  -3.1 °C 30.3 in /  1026.6 hPa Calm   1 mph /  1.6 km/h 97 % 0 in /  0.0 mm
04:27 27.1 °F /  -2.7 °C 26.4 °F /  -3.1 °C 30.3 in /  1026.6 hPa Calm   1 mph /  1.6 km/h 97 % 0 in /  0.0 mm
04:32 27.1 °F /  -2.7 °C 26.4 °F /  -3.1 °C 30.3 in /  1026.6 hPa Calm   1 mph /  1.6 km/h 97 % 0 in /  0.0 mm
04:37 27.1 °F /  -2.7 °C 26.4 °F /  -3.1 °C 30.3 in /  1026.6 hPa Calm     97 % 0 in /  0.0 mm
04:42 27.1 °F /  -2.7 °C 26.4 °F /  -3.1 °C 30.3 in /  1026.6 hPa Calm     97 % 0 in /  0.0 mm
04:47 27.1 °F /  -2.7 °C 26.4 °F /  -3.1 °C 30.3 in /  1026.6 hPa WSW 1 mph /  1.6 km/h 1 mph /  1.6 km/h 97 % 0 in /  0.0 mm
04:52 27.1 °F /  -2.7 °C 26.4 °F /  -3.1 °C 30.3 in /  1026.6 hPa Calm   1 mph /  1.6 km/h 97 % 0 in /  0.0 mm
04:57 27.1 °F /  -2.7 °C 26.4 °F /  -3.1 °C 30.3 in /  1026.6 hPa Calm   2 mph /  3.2 km/h 97 % 0 in /  0.0 mm
05:02 27.1 °F /  -2.7 °C 26.4 °F /  -3.1 °C 30.3 in /  1026.6 hPa WSW 1 mph /  1.6 km/h 2 mph /  3.2 km/h 97 % 0 in /  0.0 mm
05:12 27.3 °F /  -2.6 °C 26.6 °F /  -3.0 °C 30.3 in /  1026.6 hPa SW 1 mph /  1.6 km/h 2 mph /  3.2 km/h 97 % 0 in /  0.0 mm
05:17 27.3 °F /  -2.6 °C 26.6 °F /  -3.0 °C 30.3 in /  1026.3 hPa Calm   2 mph /  3.2 km/h 97 % 0 in /  0.0 mm
05:27 27.1 °F /  -2.7 °C 26.4 °F /  -3.1 °C 30.3 in /  1026.3 hPa WSW 2 mph /  3.2 km/h 2 mph /  3.2 km/h 97 % 0 in /  0.0 mm
05:32 27.3 °F /  -2.6 °C 26.6 °F /  -3.0 °C 30.3 in /  1026.3 hPa SW 2 mph /  3.2 km/h 2 mph /  3.2 km/h 97 % 0 in /  0.0 mm
05:37 27.3 °F /  -2.6 °C 26.6 °F /  -3.0 °C 30.3 in /  1026.3 hPa Calm   3 mph /  4.8 km/h 97 % 0 in /  0.0 mm
05:42 27.3 °F /  -2.6 °C 26.6 °F /  -3.0 °C 30.3 in /  1026.3 hPa Calm   3 mph /  4.8 km/h 97 % 0 in /  0.0 mm
05:47 27.3 °F /  -2.6 °C 26.6 °F /  -3.0 °C 30.3 in /  1026.3 hPa SSW 1 mph /  1.6 km/h 2 mph /  3.2 km/h 97 % 0 in /  0.0 mm
05:52 27.3 °F /  -2.6 °C 26.6 °F /  -3.0 °C 30.3 in /  1026.3 hPa Calm   2 mph /  3.2 km/h 97 % 0 in /  0.0 mm
05:57 27.3 °F /  -2.6 °C 26.6 °F /  -3.0 °C 30.3 in /  1026.3 hPa Calm   2 mph /  3.2 km/h 97 % 0 in /  0.0 mm
06:02 27.3 °F /  -2.6 °C 26.6 °F /  -3.0 °C 30.3 in /  1026.3 hPa SW 1 mph /  1.6 km/h 2 mph /  3.2 km/h 97 % 0 in /  0.0 mm
06:07 27.3 °F /  -2.6 °C 26.6 °F /  -3.0 °C 30.3 in /  1026.3 hPa Calm   2 mph /  3.2 km/h 97 % 0 in /  0.0 mm
06:12 27.3 °F /  -2.6 °C 26.6 °F /  -3.0 °C 30.3 in /  1026.3 hPa SSW 1 mph /  1.6 km/h 2 mph /  3.2 km/h 97 % 0 in /  0.0 mm
06:17 27.3 °F /  -2.6 °C 26.6 °F /  -3.0 °C 30.3 in /  1026.3 hPa SW 1 mph /  1.6 km/h 2 mph /  3.2 km/h 97 % 0 in /  0.0 mm
06:22 27.3 °F /  -2.6 °C 26.6 °F /  -3.0 °C 30.3 in /  1026.0 hPa Calm   2 mph /  3.2 km/h 97 % 0 in /  0.0 mm
06:27 27.3 °F /  -2.6 °C 26.6 °F /  -3.0 °C 30.3 in /  1026.0 hPa SSW 2 mph /  3.2 km/h 2 mph /  3.2 km/h 97 % 0 in /  0.0 mm
06:32 27.3 °F /  -2.6 °C 26.6 °F /  -3.0 °C 30.3 in /  1026.0 hPa Calm   2 mph /  3.2 km/h 97 % 0 in /  0.0 mm
06:37 27.3 °F /  -2.6 °C 26.6 °F /  -3.0 °C 30.3 in /  1026.0 hPa SW 1 mph /  1.6 km/h 2 mph /  3.2 km/h 97 % 0 in /  0.0 mm
06:42 27.1 °F /  -2.7 °C 26.4 °F /  -3.1 °C 30.3 in /  1026.0 hPa SSW 1 mph /  1.6 km/h 2 mph /  3.2 km/h 97 % 0 in /  0.0 mm
06:47 27.1 °F /  -2.7 °C 26.4 °F /  -3.1 °C 30.3 in /  1026.0 hPa Calm   2 mph /  3.2 km/h 97 % 0 in /  0.0 mm
06:57 27.1 °F /  -2.7 °C 26.4 °F /  -3.1 °C 30.3 in /  1026.0 hPa Calm   2 mph /  3.2 km/h 97 % 0 in /  0.0 mm
07:02 27 °F /  -2.8 °C 26.2 °F /  -3.2 °C 30.3 in /  1025.6 hPa Calm   2 mph /  3.2 km/h 97 % 0 in /  0.0 mm
07:07 27 °F /  -2.8 °C 26.2 °F /  -3.2 °C 30.3 in /  1025.6 hPa Calm   2 mph /  3.2 km/h 97 % 0 in /  0.0 mm
07:12 27 °F /  -2.8 °C 26.2 °F /  -3.2 °C 30.3 in /  1025.6 hPa Calm   2 mph /  3.2 km/h 97 % 0 in /  0.0 mm
07:17 27 °F /  -2.8 °C 26.2 °F /  -3.2 °C 30.3 in /  1025.6 hPa Calm   2 mph /  3.2 km/h 97 % 0 in /  0.0 mm
07:22 27 °F /  -2.8 °C 26.2 °F /  -3.2 °C 30.3 in /  1025.6 hPa SSW 1 mph /  1.6 km/h 2 mph /  3.2 km/h 97 % 0 in /  0.0 mm
07:37 27.1 °F /  -2.7 °C 26.4 °F /  -3.1 °C 30.3 in /  1025.6 hPa SSW 1 mph /  1.6 km/h 2 mph /  3.2 km/h 97 % 0 in /  0.0 mm
07:47 27.1 °F /  -2.7 °C 26.4 °F /  -3.1 °C 30.3 in /  1025.3 hPa South 1 mph /  1.6 km/h 3 mph /  4.8 km/h 97 % 0 in /  0.0 mm
07:52 27.1 °F /  -2.7 °C 26.4 °F /  -3.1 °C 30.3 in /  1025.3 hPa SSW 1 mph /  1.6 km/h 3 mph /  4.8 km/h 97 % 0 in /  0.0 mm
07:57 27.1 °F /  -2.7 °C 26.4 °F /  -3.1 °C 30.3 in /  1025.3 hPa Calm   3 mph /  4.8 km/h 97 % 0 in /  0.0 mm
08:02 27.1 °F /  -2.7 °C 26.4 °F /  -3.1 °C 30.3 in /  1025.3 hPa SW 2 mph /  3.2 km/h 3 mph /  4.8 km/h 97 % 0 in /  0.0 mm
08:12 27.1 °F /  -2.7 °C 26.4 °F /  -3.1 °C 30.3 in /  1025.3 hPa Calm   3 mph /  4.8 km/h 97 % 0 in /  0.0 mm
08:17 27.1 °F /  -2.7 °C 26.4 °F /  -3.1 °C 30.3 in /  1025.3 hPa South 1 mph /  1.6 km/h 3 mph /  4.8 km/h 97 % 0 in /  0.0 mm
08:22 27.3 °F /  -2.6 °C 26.6 °F /  -3.0 °C 30.3 in /  1024.9 hPa SSW 1 mph /  1.6 km/h 3 mph /  4.8 km/h 97 % 0 in /  0.0 mm
08:27 27.3 °F /  -2.6 °C 26.6 °F /  -3.0 °C 30.3 in /  1024.9 hPa SW 1 mph /  1.6 km/h 3 mph /  4.8 km/h 97 % 0 in /  0.0 mm
08:32 27.3 °F /  -2.6 °C 26.6 °F /  -3.0 °C 30.3 in /  1025.3 hPa SW 1 mph /  1.6 km/h 3 mph /  4.8 km/h 97 % 0 in /  0.0 mm
08:37 27.3 °F /  -2.6 °C 26.6 °F /  -3.0 °C 30.3 in /  1025.3 hPa SSW 1 mph /  1.6 km/h 3 mph /  4.8 km/h 97 % 0 in /  0.0 mm
08:42 27.3 °F /  -2.6 °C 26.6 °F /  -3.0 °C 30.3 in /  1025.3 hPa SW 2 mph /  3.2 km/h 3 mph /  4.8 km/h 97 % 0 in /  0.0 mm
08:47 27.3 °F /  -2.6 °C 26.6 °F /  -3.0 °C 30.3 in /  1024.9 hPa WSW 1 mph /  1.6 km/h 3 mph /  4.8 km/h 97 % 0 in /  0.0 mm
08:52 27.3 °F /  -2.6 °C 26.6 °F /  -3.0 °C 30.3 in /  1025.3 hPa SW 1 mph /  1.6 km/h -998.7 mph /  -1607.4 km/h 97 % 0 in /  0.0 mm
08:57 27.3 °F /  -2.6 °C 26.6 °F /  -3.0 °C 30.3 in /  1024.9 hPa SSW 1 mph /  1.6 km/h 3 mph /  4.8 km/h 97 % 0 in /  0.0 mm
09:02 27.5 °F /  -2.5 °C 26.8 °F /  -2.9 °C 30.3 in /  1024.9 hPa SSW 1 mph /  1.6 km/h 3 mph /  4.8 km/h 97 % 0 in /  0.0 mm
09:12 27.7 °F /  -2.4 °C 27 °F /  -2.8 °C 30.3 in /  1024.9 hPa SSE 3 mph /  4.8 km/h 4 mph /  6.4 km/h 97 % 0 in /  0.0 mm
09:17 27.7 °F /  -2.4 °C 27 °F /  -2.8 °C 30.3 in /  1024.9 hPa SW 3 mph /  4.8 km/h 5 mph /  8.0 km/h 97 % 0 in /  0.0 mm
09:22 27.9 °F /  -2.3 °C 27.1 °F /  -2.7 °C 30.3 in /  1024.9 hPa SW 4 mph /  6.4 km/h 5 mph /  8.0 km/h 97 % 0 in /  0.0 mm
09:27 27.9 °F /  -2.3 °C 27.1 °F /  -2.7 °C 30.3 in /  1024.9 hPa SSW 3 mph /  4.8 km/h 4 mph /  6.4 km/h 97 % 0 in /  0.0 mm
09:32 27.9 °F /  -2.3 °C 27.1 °F /  -2.7 °C 30.3 in /  1024.9 hPa SW 3 mph /  4.8 km/h 7 mph /  11.3 km/h 97 % 0 in /  0.0 mm
09:37 27.9 °F /  -2.3 °C 27.1 °F /  -2.7 °C 30.3 in /  1024.9 hPa SW 2 mph /  3.2 km/h 7 mph /  11.3 km/h 97 % 0 in /  0.0 mm
09:42 27.9 °F /  -2.3 °C 27.1 °F /  -2.7 °C 30.3 in /  1024.9 hPa SW 3 mph /  4.8 km/h 7 mph /  11.3 km/h 97 % 0 in /  0.0 mm
09:47 27.9 °F /  -2.3 °C 27.1 °F /  -2.7 °C 30.3 in /  1024.9 hPa WSW 1 mph /  1.6 km/h 5 mph /  8.0 km/h 97 % 0 in /  0.0 mm
09:52 28 °F /  -2.2 °C 27.3 °F /  -2.6 °C 30.3 in /  1024.9 hPa WSW 2 mph /  3.2 km/h 5 mph /  8.0 km/h 97 % 0 in /  0.0 mm
09:57 28 °F /  -2.2 °C 27.3 °F /  -2.6 °C 30.3 in /  1024.9 hPa SW 3 mph /  4.8 km/h 5 mph /  8.0 km/h 97 % 0 in /  0.0 mm
10:02 28 °F /  -2.2 °C 27.3 °F /  -2.6 °C 30.3 in /  1024.9 hPa SW 3 mph /  4.8 km/h 5 mph /  8.0 km/h 97 % 0 in /  0.0 mm
10:12 28.2 °F /  -2.1 °C 27.5 °F /  -2.5 °C 30.3 in /  1024.9 hPa SW 3 mph /  4.8 km/h 5 mph /  8.0 km/h 97 % 0 in /  0.0 mm
10:17 28.4 °F /  -2.0 °C 27.7 °F /  -2.4 °C 30.3 in /  1024.9 hPa SW 3 mph /  4.8 km/h 5 mph /  8.0 km/h 97 % 0 in /  0.0 mm
10:22 28.6 °F /  -1.9 °C 27.9 °F /  -2.3 °C 30.3 in /  1024.9 hPa SW 4 mph /  6.4 km/h 4 mph /  6.4 km/h 97 % 0 in /  0.0 mm
10:27 28.6 °F /  -1.9 °C 27.9 °F /  -2.3 °C 30.3 in /  1024.9 hPa SW 2 mph /  3.2 km/h 4 mph /  6.4 km/h 97 % 0 in /  0.0 mm
10:32 28.8 °F /  -1.8 °C 28 °F /  -2.2 °C 30.3 in /  1024.9 hPa Calm   4 mph /  6.4 km/h 97 % 0 in /  0.0 mm
10:37 28.9 °F /  -1.7 °C 28.2 °F /  -2.1 °C 30.3 in /  1024.9 hPa SW 1 mph /  1.6 km/h 4 mph /  6.4 km/h 97 % 0 in /  0.0 mm
10:42 28.9 °F /  -1.7 °C 28.2 °F /  -2.1 °C 30.3 in /  1024.6 hPa Calm   4 mph /  6.4 km/h 97 % 0 in /  0.0 mm
10:47 29.1 °F /  -1.6 °C 28.4 °F /  -2.0 °C 30.3 in /  1024.6 hPa SW 2 mph /  3.2 km/h 4 mph /  6.4 km/h 97 % 0 in /  0.0 mm
10:52 29.1 °F /  -1.6 °C 28.4 °F /  -2.0 °C 30.3 in /  1024.6 hPa SW 2 mph /  3.2 km/h 4 mph /  6.4 km/h 97 % 0 in /  0.0 mm
10:57 29.3 °F /  -1.5 °C 28.6 °F /  -1.9 °C 30.3 in /  1024.6 hPa SW 1 mph /  1.6 km/h 3 mph /  4.8 km/h 97 % 0 in /  0.0 mm
11:02 29.5 °F /  -1.4 °C 28.8 °F /  -1.8 °C 30.3 in /  1024.3 hPa Calm   3 mph /  4.8 km/h 97 % 0 in /  0.0 mm
11:07 29.5 °F /  -1.4 °C 28.8 °F /  -1.8 °C 30.3 in /  1024.3 hPa Calm   2 mph /  3.2 km/h 97 % 0 in /  0.0 mm
11:12 29.7 °F /  -1.3 °C 28.9 °F /  -1.7 °C 30.3 in /  1024.6 hPa South 1 mph /  1.6 km/h 2 mph /  3.2 km/h 97 % 0 in /  0.0 mm
11:17 29.7 °F /  -1.3 °C 28.9 °F /  -1.7 °C 30.3 in /  1024.3 hPa SSW 1 mph /  1.6 km/h 2 mph /  3.2 km/h 97 % 0 in /  0.0 mm
11:22 29.8 °F /  -1.2 °C 29.1 °F /  -1.6 °C 30.3 in /  1024.3 hPa South 1 mph /  1.6 km/h 2 mph /  3.2 km/h 97 % 0 in /  0.0 mm
11:32 30 °F /  -1.1 °C 29.3 °F /  -1.5 °C 30.3 in /  1024.3 hPa SW 1 mph /  1.6 km/h 3 mph /  4.8 km/h 97 % 0 in /  0.0 mm
11:42 30 °F /  -1.1 °C 29.3 °F /  -1.5 °C 30.3 in /  1024.3 hPa Calm   3 mph /  4.8 km/h 97 % 0 in /  0.0 mm
11:47 30 °F /  -1.1 °C 29.3 °F /  -1.5 °C 30.3 in /  1024.3 hPa WSW 1 mph /  1.6 km/h 2 mph /  3.2 km/h 97 % 0 in /  0.0 mm
11:57 30.2 °F /  -1.0 °C 29.5 °F /  -1.4 °C 30.3 in /  1024.3 hPa SSW 2 mph /  3.2 km/h 3 mph /  4.8 km/h 97 % 0 in /  0.0 mm
12:02 30.4 °F /  -0.9 °C 29.7 °F /  -1.3 °C 30.2 in /  1023.9 hPa SW 2 mph /  3.2 km/h 4 mph /  6.4 km/h 97 % 0 in /  0.0 mm
12:12 30.6 °F /  -0.8 °C 29.8 °F /  -1.2 °C 30.2 in /  1023.9 hPa Calm   4 mph /  6.4 km/h 97 % 0 in /  0.0 mm
12:17 30.6 °F /  -0.8 °C 29.8 °F /  -1.2 °C 30.2 in /  1023.9 hPa South 1 mph /  1.6 km/h 3 mph /  4.8 km/h 97 % 0 in /  0.0 mm
12:22 30.6 °F /  -0.8 °C 29.8 °F /  -1.2 °C 30.2 in /  1023.6 hPa SW 1 mph /  1.6 km/h 3 mph /  4.8 km/h 97 % 0 in /  0.0 mm
12:32 30.7 °F /  -0.7 °C 30 °F /  -1.1 °C 30.2 in /  1023.6 hPa SW 1 mph /  1.6 km/h 4 mph /  6.4 km/h 97 % 0 in /  0.0 mm
12:37 30.7 °F /  -0.7 °C 30 °F /  -1.1 °C 30.2 in /  1023.6 hPa SW 2 mph /  3.2 km/h 4 mph /  6.4 km/h 97 % 0 in /  0.0 mm
12:42 30.7 °F /  -0.7 °C 30 °F /  -1.1 °C 30.2 in /  1023.2 hPa SW 1 mph /  1.6 km/h 3 mph /  4.8 km/h 97 % 0 in /  0.0 mm
12:47 30.7 °F /  -0.7 °C 30 °F /  -1.1 °C 30.2 in /  1023.2 hPa SW 1 mph /  1.6 km/h 3 mph /  4.8 km/h 97 % 0 in /  0.0 mm
12:52 30.7 °F /  -0.7 °C 30 °F /  -1.1 °C 30.2 in /  1023.2 hPa SW 1 mph /  1.6 km/h 4 mph /  6.4 km/h 97 % 0 in /  0.0 mm
12:57 30.7 °F /  -0.7 °C 30 °F /  -1.1 °C 30.2 in /  1023.2 hPa WSW 1 mph /  1.6 km/h 4 mph /  6.4 km/h 97 % 0 in /  0.0 mm
13:02 30.9 °F /  -0.6 °C 30.2 °F /  -1.0 °C 30.2 in /  1023.2 hPa SSW 2 mph /  3.2 km/h 3 mph /  4.8 km/h 97 % 0 in /  0.0 mm
13:07 30.9 °F /  -0.6 °C 30.2 °F /  -1.0 °C 30.2 in /  1023.2 hPa SW 2 mph /  3.2 km/h 4 mph /  6.4 km/h 97 % 0 in /  0.0 mm
13:12 30.9 °F /  -0.6 °C 30.2 °F /  -1.0 °C 30.2 in /  1023.2 hPa SW 2 mph /  3.2 km/h 4 mph /  6.4 km/h 97 % 0 in /  0.0 mm
13:17 30.9 °F /  -0.6 °C 30.2 °F /  -1.0 °C 30.2 in /  1022.9 hPa SSE 1 mph /  1.6 km/h 4 mph /  6.4 km/h 97 % 0 in /  0.0 mm
13:27 30.9 °F /  -0.6 °C 30.2 °F /  -1.0 °C 30.2 in /  1022.9 hPa WSW 3 mph /  4.8 km/h 5 mph /  8.0 km/h 97 % 0 in /  0.0 mm
13:37 30.9 °F /  -0.6 °C 30.2 °F /  -1.0 °C 30.2 in /  1022.9 hPa Calm   5 mph /  8.0 km/h 97 % 0 in /  0.0 mm
13:42 30.9 °F /  -0.6 °C 30.2 °F /  -1.0 °C 30.2 in /  1022.9 hPa West 2 mph /  3.2 km/h 4 mph /  6.4 km/h 97 % 0 in /  0.0 mm
13:47 31.1 °F /  -0.5 °C 30.4 °F /  -0.9 °C 30.2 in /  1022.6 hPa SSW 1 mph /  1.6 km/h 4 mph /  6.4 km/h 97 % 0 in /  0.0 mm
13:57 31.1 °F /  -0.5 °C 30.4 °F /  -0.9 °C 30.2 in /  1022.6 hPa WSW 1 mph /  1.6 km/h 4 mph /  6.4 km/h 97 % 0 in /  0.0 mm
14:02 31.3 °F /  -0.4 °C 30.6 °F /  -0.8 °C 30.2 in /  1022.2 hPa SW 1 mph /  1.6 km/h 3 mph /  4.8 km/h 97 % 0 in /  0.0 mm
14:07 31.3 °F /  -0.4 °C 30.6 °F /  -0.8 °C 30.2 in /  1022.2 hPa SW 1 mph /  1.6 km/h 4 mph /  6.4 km/h 97 % 0 in /  0.0 mm
14:12 31.3 °F /  -0.4 °C 30.6 °F /  -0.8 °C 30.2 in /  1022.2 hPa SW 2 mph /  3.2 km/h 4 mph /  6.4 km/h 97 % 0 in /  0.0 mm
14:17 31.3 °F /  -0.4 °C 30.6 °F /  -0.8 °C 30.2 in /  1022.2 hPa WSW 1 mph /  1.6 km/h 4 mph /  6.4 km/h 97 % 0 in /  0.0 mm
14:27 31.3 °F /  -0.4 °C 30.6 °F /  -0.8 °C 30.2 in /  1022.2 hPa SSW 1 mph /  1.6 km/h 3 mph /  4.8 km/h 97 % 0 in /  0.0 mm
14:32 31.5 °F /  -0.3 °C 30.9 °F /  -0.6 °C 30.2 in /  1022.2 hPa WSW 1 mph /  1.6 km/h 4 mph /  6.4 km/h 98 % 0 in /  0.0 mm
14:37 31.5 °F /  -0.3 °C 30.9 °F /  -0.6 °C 30.2 in /  1022.2 hPa WSW 3 mph /  4.8 km/h 4 mph /  6.4 km/h 98 % 0 in /  0.0 mm
14:47 31.5 °F /  -0.3 °C 30.9 °F /  -0.6 °C 30.2 in /  1022.2 hPa SW 1 mph /  1.6 km/h 6 mph /  9.7 km/h 98 % 0 in /  0.0 mm
14:52 31.5 °F /  -0.3 °C 30.9 °F /  -0.6 °C 30.2 in /  1022.2 hPa SW 1 mph /  1.6 km/h 6 mph /  9.7 km/h 98 % 0 in /  0.0 mm
14:57 31.5 °F /  -0.3 °C 30.7 °F /  -0.7 °C 30.2 in /  1022.2 hPa WSW 4 mph /  6.4 km/h 7 mph /  11.3 km/h 97 % 0 in /  0.0 mm
15:07 31.5 °F /  -0.3 °C 30.7 °F /  -0.7 °C 30.2 in /  1022.2 hPa WNW 1 mph /  1.6 km/h 7 mph /  11.3 km/h 97 % 0 in /  0.0 mm
15:17 31.3 °F /  -0.4 °C 30.6 °F /  -0.8 °C 30.2 in /  1022.2 hPa West 2 mph /  3.2 km/h 7 mph /  11.3 km/h 97 % 0 in /  0.0 mm
15:22 31.3 °F /  -0.4 °C 30.6 °F /  -0.8 °C 30.2 in /  1022.2 hPa SW 3 mph /  4.8 km/h 7 mph /  11.3 km/h 97 % 0 in /  0.0 mm
15:27 31.3 °F /  -0.4 °C 30.6 °F /  -0.8 °C 30.2 in /  1022.2 hPa WSW 1 mph /  1.6 km/h 7 mph /  11.3 km/h 97 % 0 in /  0.0 mm
15:37 31.3 °F /  -0.4 °C 30.6 °F /  -0.8 °C 30.2 in /  1022.2 hPa WSW 2 mph /  3.2 km/h 4 mph /  6.4 km/h 97 % 0 in /  0.0 mm
15:42 31.3 °F /  -0.4 °C 30.6 °F /  -0.8 °C 30.2 in /  1022.2 hPa WSW 1 mph /  1.6 km/h 4 mph /  6.4 km/h 97 % 0 in /  0.0 mm
15:47 31.3 °F /  -0.4 °C 30.6 °F /  -0.8 °C 30.2 in /  1022.2 hPa Calm   4 mph /  6.4 km/h 97 % 0 in /  0.0 mm
15:52 31.3 °F /  -0.4 °C 30.7 °F /  -0.7 °C 30.2 in /  1022.2 hPa SW 1 mph /  1.6 km/h 4 mph /  6.4 km/h 98 % 0 in /  0.0 mm
15:57 31.3 °F /  -0.4 °C 30.7 °F /  -0.7 °C 30.2 in /  1022.2 hPa SW 2 mph /  3.2 km/h 4 mph /  6.4 km/h 98 % 0 in /  0.0 mm
16:02 31.3 °F /  -0.4 °C 30.7 °F /  -0.7 °C 30.2 in /  1022.2 hPa West 2 mph /  3.2 km/h 4 mph /  6.4 km/h 98 % 0 in /  0.0 mm
16:07 31.3 °F /  -0.4 °C 30.7 °F /  -0.7 °C 30.2 in /  1022.2 hPa West 1 mph /  1.6 km/h 4 mph /  6.4 km/h 98 % 0 in /  0.0 mm
16:12 31.3 °F /  -0.4 °C 30.7 °F /  -0.7 °C 30.2 in /  1022.2 hPa WNW 1 mph /  1.6 km/h 3 mph /  4.8 km/h 98 % 0 in /  0.0 mm
16:17 31.3 °F /  -0.4 °C 30.7 °F /  -0.7 °C 30.2 in /  1022.2 hPa SW 1 mph /  1.6 km/h 2 mph /  3.2 km/h 98 % 0 in /  0.0 mm
16:22 31.3 °F /  -0.4 °C 30.7 °F /  -0.7 °C 30.2 in /  1022.2 hPa SW 2 mph /  3.2 km/h 2 mph /  3.2 km/h 98 % 0 in /  0.0 mm
16:27 31.1 °F /  -0.5 °C 30.6 °F /  -0.8 °C 30.2 in /  1022.2 hPa WSW 3 mph /  4.8 km/h 4 mph /  6.4 km/h 98 % 0 in /  0.0 mm
16:32 31.1 °F /  -0.5 °C 30.6 °F /  -0.8 °C 30.2 in /  1022.2 hPa Calm   4 mph /  6.4 km/h 98 % 0 in /  0.0 mm
16:42 31.1 °F /  -0.5 °C 30.6 °F /  -0.8 °C 30.2 in /  1022.2 hPa West 2 mph /  3.2 km/h 5 mph /  8.0 km/h 98 % 0 in /  0.0 mm
16:47 31.1 °F /  -0.5 °C 30.6 °F /  -0.8 °C 30.2 in /  1022.2 hPa SW 3 mph /  4.8 km/h 5 mph /  8.0 km/h 98 % 0 in /  0.0 mm
16:53 31.1 °F /  -0.5 °C 30.6 °F /  -0.8 °C 30.2 in /  1022.2 hPa WSW 1 mph /  1.6 km/h 5 mph /  8.0 km/h 98 % 0 in /  0.0 mm
17:02 31.3 °F /  -0.4 °C 30.7 °F /  -0.7 °C 30.2 in /  1022.2 hPa SW 1 mph /  1.6 km/h 5 mph /  8.0 km/h 98 % 0 in /  0.0 mm
17:12 31.5 °F /  -0.3 °C 30.9 °F /  -0.6 °C 30.2 in /  1022.2 hPa Calm   4 mph /  6.4 km/h 98 % 0 in /  0.0 mm
17:22 31.5 °F /  -0.3 °C 30.9 °F /  -0.6 °C 30.2 in /  1022.2 hPa WSW 1 mph /  1.6 km/h 4 mph /  6.4 km/h 98 % 0 in /  0.0 mm
17:27 31.6 °F /  -0.2 °C 31.1 °F /  -0.5 °C 30.2 in /  1022.2 hPa WSW 1 mph /  1.6 km/h 3 mph /  4.8 km/h 98 % 0 in /  0.0 mm
17:32 31.6 °F /  -0.2 °C 31.1 °F /  -0.5 °C 30.2 in /  1022.2 hPa WSW 2 mph /  3.2 km/h 3 mph /  4.8 km/h 98 % 0 in /  0.0 mm
17:37 31.6 °F /  -0.2 °C 31.1 °F /  -0.5 °C 30.2 in /  1022.2 hPa WSW 1 mph /  1.6 km/h 3 mph /  4.8 km/h 98 % 0 in /  0.0 mm
17:42 31.6 °F /  -0.2 °C 31.1 °F /  -0.5 °C 30.2 in /  1022.2 hPa WSW 2 mph /  3.2 km/h 3 mph /  4.8 km/h 98 % 0 in /  0.0 mm
17:52 31.6 °F /  -0.2 °C 31.1 °F /  -0.5 °C 30.2 in /  1022.6 hPa WSW 1 mph /  1.6 km/h 3 mph /  4.8 km/h 98 % 0 in /  0.0 mm
17:57 31.8 °F /  -0.1 °C 31.3 °F /  -0.4 °C 30.2 in /  1022.6 hPa SW 1 mph /  1.6 km/h 3 mph /  4.8 km/h 98 % 0 in /  0.0 mm
18:02 31.8 °F /  -0.1 °C 31.3 °F /  -0.4 °C 30.2 in /  1022.6 hPa Calm   3 mph /  4.8 km/h 98 % 0 in /  0.0 mm
18:07 31.8 °F /  -0.1 °C 31.3 °F /  -0.4 °C 30.2 in /  1022.2 hPa SW 1 mph /  1.6 km/h 3 mph /  4.8 km/h 98 % 0 in /  0.0 mm
18:12 31.8 °F /  -0.1 °C 31.3 °F /  -0.4 °C 30.2 in /  1022.6 hPa Calm   3 mph /  4.8 km/h 98 % 0 in /  0.0 mm
18:17 31.8 °F /  -0.1 °C 31.3 °F /  -0.4 °C 30.2 in /  1022.2 hPa WSW 1 mph /  1.6 km/h 3 mph /  4.8 km/h 98 % 0 in /  0.0 mm
18:22 31.8 °F /  -0.1 °C 31.3 °F /  -0.4 °C 30.2 in /  1022.6 hPa WSW 1 mph /  1.6 km/h 3 mph /  4.8 km/h 98 % 0 in /  0.0 mm
18:27 31.8 °F /  -0.1 °C 31.3 °F /  -0.4 °C 30.2 in /  1022.2 hPa Calm   2 mph /  3.2 km/h 98 % 0 in /  0.0 mm
18:32 31.8 °F /  -0.1 °C 31.3 °F /  -0.4 °C 30.2 in /  1022.6 hPa Calm   2 mph /  3.2 km/h 98 % 0 in /  0.0 mm
18:37 31.8 °F /  -0.1 °C 31.3 °F /  -0.4 °C 30.2 in /  1022.2 hPa SW 1 mph /  1.6 km/h 2 mph /  3.2 km/h 98 % 0 in /  0.0 mm
18:42 31.8 °F /  -0.1 °C 31.3 °F /  -0.4 °C 30.2 in /  1022.6 hPa West 1 mph /  1.6 km/h 2 mph /  3.2 km/h 98 % 0 in /  0.0 mm
18:52 31.8 °F /  -0.1 °C 31.3 °F /  -0.4 °C 30.2 in /  1022.6 hPa WSW 1 mph /  1.6 km/h 3 mph /  4.8 km/h 98 % 0 in /  0.0 mm
18:57 32 °F /  0.0 °C 31.5 °F /  -0.3 °C 30.2 in /  1022.6 hPa Calm   3 mph /  4.8 km/h 98 % 0 in /  0.0 mm
19:02 31.8 °F /  -0.1 °C 31.3 °F /  -0.4 °C 30.2 in /  1022.6 hPa SW 2 mph /  3.2 km/h 3 mph /  4.8 km/h 98 % 0 in /  0.0 mm
19:07 32 °F /  0.0 °C 31.5 °F /  -0.3 °C 30.2 in /  1022.6 hPa WSW 1 mph /  1.6 km/h 3 mph /  4.8 km/h 98 % 0 in /  0.0 mm
19:12 32 °F /  0.0 °C 31.5 °F /  -0.3 °C 30.2 in /  1022.6 hPa SW 1 mph /  1.6 km/h 2 mph /  3.2 km/h 98 % 0 in /  0.0 mm
19:22 32.2 °F /  0.1 °C 31.6 °F /  -0.2 °C 30.2 in /  1022.6 hPa WSW 2 mph /  3.2 km/h 2 mph /  3.2 km/h 98 % 0 in /  0.0 mm
19:32 32.2 °F /  0.1 °C 31.6 °F /  -0.2 °C 30.2 in /  1022.6 hPa Calm   3 mph /  4.8 km/h 98 % 0 in /  0.0 mm
19:37 32.2 °F /  0.1 °C 31.6 °F /  -0.2 °C 30.2 in /  1022.6 hPa Calm   3 mph /  4.8 km/h 98 % 0 in /  0.0 mm
19:42 32.2 °F /  0.1 °C 31.6 °F /  -0.2 °C 30.2 in /  1022.6 hPa Calm   2 mph /  3.2 km/h 98 % 0 in /  0.0 mm
19:52 32.2 °F /  0.1 °C 31.6 °F /  -0.2 °C 30.2 in /  1022.9 hPa WSW 1 mph /  1.6 km/h 2 mph /  3.2 km/h 98 % 0 in /  0.0 mm
19:57 32.2 °F /  0.1 °C 31.6 °F /  -0.2 °C 30.2 in /  1022.9 hPa Calm   1 mph /  1.6 km/h 98 % 0 in /  0.0 mm
20:02 32.2 °F /  0.1 °C 31.6 °F /  -0.2 °C 30.2 in /  1022.9 hPa Calm   1 mph /  1.6 km/h 98 % 0 in /  0.0 mm
20:12 32.4 °F /  0.2 °C 31.8 °F /  -0.1 °C 30.2 in /  1022.9 hPa Calm   1 mph /  1.6 km/h 98 % 0 in /  0.0 mm
20:17 32.4 °F /  0.2 °C 31.8 °F /  -0.1 °C 30.2 in /  1022.9 hPa Calm   1 mph /  1.6 km/h 98 % 0 in /  0.0 mm
20:22 32.4 °F /  0.2 °C 31.8 °F /  -0.1 °C 30.2 in /  1022.9 hPa Calm   3 mph /  4.8 km/h 98 % 0 in /  0.0 mm
20:32 32.2 °F /  0.1 °C 31.6 °F /  -0.2 °C 30.2 in /  1022.9 hPa Calm   3 mph /  4.8 km/h 98 % 0 in /  0.0 mm
20:37 32 °F /  0.0 °C 31.5 °F /  -0.3 °C 30.2 in /  1022.6 hPa Calm   2 mph /  3.2 km/h 98 % 0 in /  0.0 mm
20:42 32 °F /  0.0 °C 31.5 °F /  -0.3 °C 30.2 in /  1022.6 hPa Calm   1 mph /  1.6 km/h 98 % 0 in /  0.0 mm
20:52 32 °F /  0.0 °C 31.5 °F /  -0.3 °C 30.2 in /  1022.6 hPa Calm   1 mph /  1.6 km/h 98 % 0 in /  0.0 mm
20:57 32 °F /  0.0 °C 31.5 °F /  -0.3 °C 30.2 in /  1022.6 hPa Calm   1 mph /  1.6 km/h 98 % 0 in /  0.0 mm
21:02 31.8 °F /  -0.1 °C 31.3 °F /  -0.4 °C 30.2 in /  1022.6 hPa Calm   1 mph /  1.6 km/h 98 % 0 in /  0.0 mm
21:12 31.8 °F /  -0.1 °C 31.3 °F /  -0.4 °C 30.2 in /  1022.9 hPa Calm   1 mph /  1.6 km/h 98 % 0 in /  0.0 mm
21:17 31.8 °F /  -0.1 °C 31.3 °F /  -0.4 °C 30.2 in /  1022.9 hPa Calm     98 % 0 in /  0.0 mm
21:22 31.8 °F /  -0.1 °C 31.3 °F /  -0.4 °C 30.2 in /  1022.9 hPa Calm     98 % 0 in /  0.0 mm
21:27 31.8 °F /  -0.1 °C 31.3 °F /  -0.4 °C 30.2 in /  1022.9 hPa Calm     98 % 0 in /  0.0 mm
21:37 31.8 °F /  -0.1 °C 31.3 °F /  -0.4 °C 30.2 in /  1022.9 hPa Calm     98 % 0 in /  0.0 mm
21:42 31.8 °F /  -0.1 °C 31.3 °F /  -0.4 °C 30.2 in /  1022.9 hPa Calm     98 % 0 in /  0.0 mm
21:47 31.6 °F /  -0.2 °C 31.1 °F /  -0.5 °C 30.2 in /  1022.9 hPa Calm     98 % 0 in /  0.0 mm
21:57 31.6 °F /  -0.2 °C 31.1 °F /  -0.5 °C 30.2 in /  1022.9 hPa Calm     98 % 0 in /  0.0 mm
22:02 31.6 °F /  -0.2 °C 31.1 °F /  -0.5 °C 30.2 in /  1022.9 hPa Calm     98 % 0 in /  0.0 mm
22:07 31.6 °F /  -0.2 °C 31.1 °F /  -0.5 °C 30.2 in /  1022.9 hPa Calm     98 % 0 in /  0.0 mm
22:17 31.6 °F /  -0.2 °C 31.1 °F /  -0.5 °C 30.2 in /  1022.9 hPa Calm     98 % 0 in /  0.0 mm
22:22 31.6 °F /  -0.2 °C 31.1 °F /  -0.5 °C 30.2 in /  1022.9 hPa Calm     98 % 0 in /  0.0 mm
22:27 31.6 °F /  -0.2 °C 31.1 °F /  -0.5 °C 30.2 in /  1022.9 hPa Calm     98 % 0 in /  0.0 mm
22:37 31.8 °F /  -0.1 °C 31.3 °F /  -0.4 °C 30.2 in /  1022.9 hPa Calm     98 % 0 in /  0.0 mm
22:42 31.8 °F /  -0.1 °C 31.3 °F /  -0.4 °C 30.2 in /  1022.9 hPa Calm     98 % 0 in /  0.0 mm
22:47 31.8 °F /  -0.1 °C 31.3 °F /  -0.4 °C 30.2 in /  1022.9 hPa Calm     98 % 0 in /  0.0 mm
22:57 31.8 °F /  -0.1 °C 31.3 °F /  -0.4 °C 30.2 in /  1023.2 hPa Calm     98 % 0 in /  0.0 mm
23:07 31.8 °F /  -0.1 °C 31.3 °F /  -0.4 °C 30.2 in /  1022.9 hPa Calm     98 % 0 in /  0.0 mm
23:17 31.8 °F /  -0.1 °C 31.3 °F /  -0.4 °C 30.2 in /  1022.9 hPa Calm     98 % 0 in /  0.0 mm
23:22 31.8 °F /  -0.1 °C 31.3 °F /  -0.4 °C 30.2 in /  1022.9 hPa Calm     98 % 0 in /  0.0 mm
23:27 31.8 °F /  -0.1 °C 31.3 °F /  -0.4 °C 30.2 in /  1023.2 hPa Calm     98 % 0 in /  0.0 mm
23:32 31.8 °F /  -0.1 °C 31.3 °F /  -0.4 °C 30.2 in /  1023.2 hPa Calm     98 % 0 in /  0.0 mm
23:37 31.8 °F /  -0.1 °C 31.3 °F /  -0.4 °C 30.2 in /  1023.2 hPa Calm     98 % 0 in /  0.0 mm
23:42 31.8 °F /  -0.1 °C 31.3 °F /  -0.4 °C 30.2 in /  1023.2 hPa Calm     98 % 0 in /  0.0 mm
23:52 31.8 °F /  -0.1 °C 31.3 °F /  -0.4 °C 30.2 in /  1023.2 hPa Calm     98 % 0 in /  0.0 mm
23:57 31.8 °F /  -0.1 °C 31.3 °F /  -0.4 °C 30.2 in /  1023.2 hPa Calm     98 % 0 in /  0.0 mm
Meteo18
Compliments of Weather Underground - 4 mb

Script developed by  Jim McMurry - jmcmurry@mwt.net Adapted for the template by  Wim van der Kuil - Leuven-Template.eu

You find our weather info also at:

European Weather Network

Weather Underground

Equipment we use:

Weather-station
Davis Vue

Weather-program
Meteohub

Weather-server
Raspberry PI 2 B+

Provider
1 and 1

Davis Vue

Meteohub

Raspberry PI 2 B+

1 and 1